Time;durP1;ratioP1;P1;durP2;ratioP2;P2;SDS_P1;SDS_P2;PMS_P1;PMS_P2;Temp;Humidity;BMP_temperature;BMP_pressure;BME280_temperature;BME280_humidity;BME280_pressure;Samples;Min_cycle;Max_cycle;Signal;HPM_P1;HPM_P2
2024/01/03 00:01:11;;;;;;;20.20;3.40;;;8.50;99.90;;;;;;5099409;28;20321;-73
2024/01/03 00:03:37;;;;;;;27.43;3.50;;;8.50;99.90;;;;;;5099470;28;20051;-74
2024/01/03 00:06:05;;;;;;;19.33;3.63;;;8.40;99.90;;;;;;5099650;28;20292;-74
2024/01/03 00:08:34;;;;;;;23.97;4.00;;;8.40;99.90;;;;;;5099587;28;20120;-74
2024/01/03 00:11:01;;;;;;;20.27;3.97;;;8.40;99.90;;;;;;5099377;28;20282;-75
2024/01/03 00:13:33;;;;;;;17.60;3.20;;;8.40;99.90;;;;;;5099557;28;20278;-74
2024/01/03 00:16:01;;;;;;;16.77;2.50;;;8.40;99.90;;;;;;5099173;28;20786;-73
2024/01/03 00:18:38;;;;;;;23.97;3.67;;;8.40;99.90;;;;;;5099597;28;20289;-74
2024/01/03 00:21:07;;;;;;;19.80;3.57;;;8.40;99.90;;;;;;5099390;28;20270;-74
2024/01/03 00:23:47;;;;;;;21.10;3.73;;;8.30;99.90;;;;;;5099430;28;20328;-74
2024/01/03 00:26:13;;;;;;;23.77;3.87;;;8.30;99.90;;;;;;5099198;28;20807;-74
2024/01/03 00:28:40;;;;;;;17.03;3.20;;;8.30;99.90;;;;;;5099187;28;20698;-74
2024/01/03 00:31:09;;;;;;;18.67;3.20;;;8.30;99.90;;;;;;5099226;28;20343;-73
2024/01/03 00:33:41;;;;;;;20.83;4.07;;;8.30;99.90;;;;;;5099515;28;20347;-74
2024/01/03 00:36:09;;;;;;;13.70;2.73;;;8.30;99.90;;;;;;5099136;28;20331;-74
2024/01/03 00:38:38;;;;;;;15.80;2.97;;;8.30;99.90;;;;;;5098826;28;20298;-74
2024/01/03 00:41:04;;;;;;;20.33;4.43;;;8.30;99.90;;;;;;5095007;28;20270;-74
2024/01/03 00:43:30;;;;;;;17.50;3.03;;;8.30;99.90;;;;;;5094110;28;20639;-73
2024/01/03 00:45:56;;;;;;;19.87;3.33;;;8.30;99.90;;;;;;5094061;28;20297;-73
2024/01/03 00:48:22;;;;;;;17.57;3.37;;;8.30;99.90;;;;;;5093645;28;20036;-74
2024/01/03 00:50:48;;;;;;;25.40;4.83;;;8.30;99.90;;;;;;5094070;28;20293;-74
2024/01/03 00:53:15;;;;;;;21.13;3.67;;;8.30;99.90;;;;;;5093826;28;20047;-75
2024/01/03 00:55:42;;;;;;;21.23;3.93;;;8.30;99.90;;;;;;5095126;28;20290;-74
2024/01/03 00:58:09;;;;;;;17.60;3.53;;;8.30;99.90;;;;;;5095538;28;20803;-75
2024/01/03 01:00:36;;;;;;;19.53;3.07;;;8.30;99.90;;;;;;5096164;28;20372;-73
2024/01/03 01:03:03;;;;;;;19.97;2.90;;;8.30;99.90;;;;;;5095723;28;20293;-73
2024/01/03 01:05:29;;;;;;;18.40;3.33;;;8.30;99.90;;;;;;5094435;28;20301;-74
2024/01/03 01:07:54;;;;;;;22.73;4.13;;;8.30;99.90;;;;;;5095550;28;20298;-73
2024/01/03 01:10:20;;;;;;;18.73;3.97;;;8.30;99.90;;;;;;5095176;28;20044;-74
2024/01/03 01:12:46;;;;;;;20.33;3.50;;;8.30;99.90;;;;;;5095612;28;20497;-74
2024/01/03 01:15:11;;;;;;;17.67;3.60;;;8.30;99.90;;;;;;5095361;28;20044;-74
2024/01/03 01:17:37;;;;;;;23.20;4.30;;;8.30;99.90;;;;;;5095497;28;20082;-73
2024/01/03 01:20:04;;;;;;;26.47;4.67;;;8.20;99.90;;;;;;5095442;28;20046;-73
2024/01/03 01:22:30;;;;;;;24.70;3.10;;;8.20;99.90;;;;;;5095099;28;20284;-73
2024/01/03 01:24:55;;;;;;;19.37;3.97;;;8.30;99.90;;;;;;5095165;28;20778;-73
2024/01/03 01:27:21;;;;;;;21.90;3.97;;;8.30;99.90;;;;;;5094769;28;20101;-73
2024/01/03 01:29:47;;;;;;;18.40;2.90;;;8.30;99.90;;;;;;5095510;28;20131;-73
2024/01/03 01:32:13;;;;;;;19.67;3.10;;;8.30;99.90;;;;;;5095063;28;20048;-73
2024/01/03 01:34:39;;;;;;;22.80;3.40;;;8.30;99.90;;;;;;5095223;28;20289;-73
2024/01/03 01:37:05;;;;;;;19.13;3.50;;;8.30;99.90;;;;;;5095088;28;20453;-73
2024/01/03 01:39:30;;;;;;;17.70;3.80;;;8.30;99.90;;;;;;5094753;28;20055;-73
2024/01/03 01:41:56;;;;;;;20.17;3.90;;;8.20;99.90;;;;;;5095038;28;20047;-73
2024/01/03 01:44:22;;;;;;;20.67;3.23;;;8.30;99.90;;;;;;5094810;28;20417;-73
2024/01/03 01:46:48;;;;;;;18.67;2.90;;;8.30;99.90;;;;;;5094733;28;20052;-73
2024/01/03 01:49:17;;;;;;;19.73;3.40;;;8.30;99.90;;;;;;5094840;28;20405;-73
2024/01/03 01:51:44;;;;;;;16.87;3.80;;;8.30;99.90;;;;;;5093580;28;20301;-73
2024/01/03 01:54:12;;;;;;;17.93;3.40;;;8.30;99.90;;;;;;5093512;28;20651;-73
2024/01/03 01:56:39;;;;;;;19.37;3.73;;;8.30;99.90;;;;;;5094462;28;20278;-74
2024/01/03 01:59:06;;;;;;;24.70;3.60;;;8.30;99.90;;;;;;5094822;28;20286;-73
2024/01/03 02:01:34;;;;;;;20.00;3.37;;;8.20;99.90;;;;;;5094477;28;20344;-73
2024/01/03 02:04:02;;;;;;;17.60;3.50;;;8.30;99.90;;;;;;5094552;28;20282;-73
2024/01/03 02:06:28;;;;;;;21.67;3.87;;;8.30;99.90;;;;;;5094276;28;20698;-72
2024/01/03 02:08:54;;;;;;;27.60;3.60;;;8.30;99.90;;;;;;5093013;28;20302;-73
2024/01/03 02:11:19;;;;;;;18.53;3.73;;;8.30;99.90;;;;;;5094298;28;20185;-73
2024/01/03 02:13:46;;;;;;;17.00;3.27;;;8.30;99.90;;;;;;5094387;28;20044;-73
2024/01/03 02:16:12;;;;;;;25.30;3.87;;;8.40;99.90;;;;;;5094100;28;20512;-73
2024/01/03 02:18:39;;;;;;;17.27;3.47;;;8.30;99.90;;;;;;5092763;28;20290;-73
2024/01/03 02:21:17;;;;;;;21.87;3.27;;;8.40;99.90;;;;;;5094162;28;20564;-73
2024/01/03 02:23:45;;;;;;;14.73;3.30;;;8.40;99.90;;;;;;5094133;28;20281;-73
2024/01/03 02:26:11;;;;;;;17.73;2.97;;;8.40;99.90;;;;;;5094074;28;20282;-73
2024/01/03 02:28:37;;;;;;;18.17;3.50;;;8.30;99.90;;;;;;5092733;28;20362;-73
2024/01/03 02:31:03;;;;;;;15.33;2.90;;;8.30;99.90;;;;;;5093962;28;20290;-73
2024/01/03 02:33:29;;;;;;;17.47;3.50;;;8.30;99.90;;;;;;5092821;28;20059;-73
2024/01/03 02:35:54;;;;;;;17.47;3.77;;;8.30;99.90;;;;;;5092677;28;20129;-73
2024/01/03 02:38:21;;;;;;;19.13;3.23;;;8.30;99.90;;;;;;5093625;28;20047;-72
2024/01/03 02:40:47;;;;;;;15.10;3.00;;;8.30;99.90;;;;;;5091568;28;20059;-73
2024/01/03 02:43:13;;;;;;;24.40;4.03;;;8.30;99.90;;;;;;5091682;28;20322;-73
2024/01/03 02:45:39;;;;;;;19.17;4.17;;;8.30;99.90;;;;;;5091563;28;20684;-73
2024/01/03 02:48:05;;;;;;;16.93;2.70;;;8.40;99.90;;;;;;5091515;28;20551;-73
2024/01/03 02:50:31;;;;;;;16.97;2.90;;;8.40;99.90;;;;;;5091908;28;20410;-73
2024/01/03 02:52:56;;;;;;;14.90;2.77;;;8.40;99.90;;;;;;5091859;28;20286;-73
2024/01/03 02:55:22;;;;;;;14.63;3.03;;;8.40;99.90;;;;;;5091816;28;20044;-73
2024/01/03 02:57:48;;;;;;;18.57;3.53;;;8.40;99.90;;;;;;5092108;28;20059;-73
2024/01/03 03:00:14;;;;;;;17.43;3.97;;;8.40;99.90;;;;;;5093686;28;20050;-72
2024/01/03 03:02:40;;;;;;;19.97;3.23;;;8.40;99.90;;;;;;5092299;28;20282;-72
2024/01/03 03:05:06;;;;;;;16.57;3.20;;;8.30;99.90;;;;;;5092898;28;20557;-72
2024/01/03 03:07:32;;;;;;;19.03;3.03;;;8.30;99.90;;;;;;5092995;28;20698;-73
2024/01/03 03:09:58;;;;;;;18.27;3.20;;;8.30;99.90;;;;;;5093479;28;20369;-73
2024/01/03 03:12:24;;;;;;;22.93;3.13;;;8.30;99.90;;;;;;5093342;28;20317;-73
2024/01/03 03:14:50;;;;;;;16.90;2.83;;;8.30;99.90;;;;;;5093061;28;20058;-72
2024/01/03 03:17:16;;;;;;;16.47;3.27;;;8.30;99.90;;;;;;5093221;28;20050;-72
2024/01/03 03:19:42;;;;;;;22.73;3.00;;;8.30;99.90;;;;;;5091977;28;20365;-73
2024/01/03 03:22:08;;;;;;;19.00;3.47;;;8.40;99.90;;;;;;5093143;28;20503;-72
2024/01/03 03:24:34;;;;;;;14.60;3.17;;;8.30;99.90;;;;;;5091973;28;20365;-73
2024/01/03 03:26:59;;;;;;;16.77;2.93;;;8.30;99.90;;;;;;5093454;28;20052;-72
2024/01/03 03:29:25;;;;;;;15.40;3.13;;;8.30;99.90;;;;;;5093181;28;20040;-72
2024/01/03 03:31:51;;;;;;;18.63;3.67;;;8.40;99.90;;;;;;5092864;28;20044;-72
2024/01/03 03:34:20;;;;;;;12.70;2.50;;;8.30;99.90;;;;;;5093000;28;20056;-72
2024/01/03 03:36:45;;;;;;;15.47;2.70;;;8.40;99.90;;;;;;5091820;28;20461;-72
2024/01/03 03:39:11;;;;;;;20.10;2.80;;;8.40;99.90;;;;;;5092864;28;20330;-71
2024/01/03 03:41:37;;;;;;;14.23;2.53;;;8.40;99.90;;;;;;5092825;28;20055;-73
2024/01/03 03:44:03;;;;;;;13.30;2.70;;;8.40;99.90;;;;;;5091936;28;20048;-72
2024/01/03 03:46:29;;;;;;;16.87;3.10;;;8.40;99.90;;;;;;5093105;28;20286;-73
2024/01/03 03:48:55;;;;;;;16.30;3.47;;;8.40;99.90;;;;;;5091414;28;20532;-72
2024/01/03 03:51:20;;;;;;;15.10;2.93;;;8.40;99.90;;;;;;5093052;28;20130;-72
2024/01/03 03:53:46;;;;;;;19.60;3.27;;;8.40;99.90;;;;;;5092884;28;20043;-72
2024/01/03 03:56:22;;;;;;;13.43;2.37;;;8.40;99.90;;;;;;5092999;28;20626;-72
2024/01/03 03:58:47;;;;;;;21.37;2.80;;;8.40;99.90;;;;;;5092787;28;20083;-72
2024/01/03 04:01:13;;;;;;;19.13;2.60;;;8.40;99.90;;;;;;5091750;28;20383;-72
2024/01/03 04:03:39;;;;;;;13.23;2.77;;;8.40;99.90;;;;;;5092447;28;20048;-72
2024/01/03 04:06:04;;;;;;;18.67;3.43;;;8.40;99.90;;;;;;5093003;28;20545;-72
2024/01/03 04:08:30;;;;;;;24.50;3.40;;;8.40;99.90;;;;;;5092675;28;20126;-72
2024/01/03 04:10:56;;;;;;;17.03;3.00;;;8.40;99.90;;;;;;5092672;28;20043;-72
2024/01/03 04:13:21;;;;;;;14.47;2.70;;;8.40;99.90;;;;;;5091851;28;20044;-72
2024/01/03 04:15:48;;;;;;;15.20;2.63;;;8.40;99.90;;;;;;5092827;28;20466;-72
2024/01/03 04:18:14;;;;;;;12.13;2.70;;;8.40;99.90;;;;;;5096475;28;20086;-72
2024/01/03 04:20:39;;;;;;;15.20;2.53;;;8.40;99.90;;;;;;5096381;28;20322;-72
2024/01/03 04:23:05;;;;;;;11.57;2.63;;;8.40;99.90;;;;;;5096576;28;20047;-72
2024/01/03 04:25:31;;;;;;;10.03;2.97;;;8.40;99.90;;;;;;5096507;28;20048;-72
2024/01/03 04:27:57;;;;;;;11.10;2.37;;;8.40;99.90;;;;;;5095015;28;20424;-72
2024/01/03 04:30:22;;;;;;;11.43;2.33;;;8.40;99.90;;;;;;5096150;28;20509;-72
2024/01/03 04:32:48;;;;;;;16.63;2.90;;;8.40;99.90;;;;;;5095860;28;20040;-72
2024/01/03 04:35:14;;;;;;;17.83;3.00;;;8.40;99.90;;;;;;5096575;28;20498;-72
2024/01/03 04:37:39;;;;;;;23.50;3.43;;;8.50;99.90;;;;;;5096082;28;20044;-73
2024/01/03 04:40:06;;;;;;;23.67;3.60;;;8.50;99.90;;;;;;5096061;28;20414;-72
2024/01/03 04:42:31;;;;;;;21.63;3.33;;;8.50;99.90;;;;;;5096064;28;20052;-72
2024/01/03 04:44:57;;;;;;;31.17;3.90;;;8.50;99.90;;;;;;5094791;28;20293;-72
2024/01/03 04:47:23;;;;;;;24.37;3.80;;;8.50;99.90;;;;;;5095842;28;20044;-73
2024/01/03 04:49:48;;;;;;;17.13;2.43;;;8.50;99.90;;;;;;5094970;28;20048;-74
2024/01/03 04:52:14;;;;;;;16.83;2.77;;;8.40;99.90;;;;;;5095971;28;20111;-73
2024/01/03 04:54:40;;;;;;;20.73;2.80;;;8.40;99.90;;;;;;5095637;28;20090;-73
2024/01/03 04:57:06;;;;;;;16.10;3.07;;;8.50;99.90;;;;;;5096035;28;20117;-73
2024/01/03 04:59:31;;;;;;;13.50;3.47;;;8.40;99.90;;;;;;5095749;28;20550;-73
2024/01/03 05:01:57;;;;;;;13.70;2.93;;;8.40;99.90;;;;;;5095346;28;20478;-73
2024/01/03 05:04:23;;;;;;;14.77;2.53;;;8.40;99.90;;;;;;5095829;28;20051;-73
2024/01/03 05:06:50;;;;;;;15.57;2.37;;;8.40;99.90;;;;;;5095449;28;20048;-73
2024/01/03 05:09:16;;;;;;;20.20;3.23;;;8.40;99.90;;;;;;5095675;28;20542;-73
2024/01/03 05:11:42;;;;;;;16.60;2.60;;;8.40;99.90;;;;;;5095449;28;20282;-74
2024/01/03 05:14:07;;;;;;;18.83;2.90;;;8.40;99.90;;;;;;5095428;28;20106;-73
2024/01/03 05:16:33;;;;;;;17.10;2.87;;;8.40;99.90;;;;;;5095361;28;20048;-72
2024/01/03 05:18:59;;;;;;;20.17;3.27;;;8.40;99.90;;;;;;5095393;28;20494;-72
2024/01/03 05:21:24;;;;;;;32.10;4.93;;;8.40;99.90;;;;;;5095495;28;20072;-72
2024/01/03 05:23:50;;;;;;;27.63;3.87;;;8.40;99.90;;;;;;5093992;28;20047;-72
2024/01/03 05:26:16;;;;;;;30.37;4.83;;;8.40;99.90;;;;;;5095568;28;20083;-72
2024/01/03 05:28:42;;;;;;;29.83;4.77;;;8.40;99.90;;;;;;5076848;28;20050;-72
2024/01/03 05:31:08;;;;;;;31.57;4.20;;;8.40;99.90;;;;;;5094800;28;20047;-72
2024/01/03 05:33:33;;;;;;;33.67;5.63;;;8.50;99.90;;;;;;5095199;28;20281;-72
2024/01/03 05:35:59;;;;;;;27.97;4.87;;;8.50;99.90;;;;;;5095037;28;20098;-72
2024/01/03 05:38:25;;;;;;;30.00;5.67;;;8.50;99.90;;;;;;5094835;28;20067;-72
2024/01/03 05:40:50;;;;;;;32.70;5.70;;;8.50;99.90;;;;;;5094562;28;20060;-72
2024/01/03 05:43:17;;;;;;;32.43;5.23;;;8.50;99.90;;;;;;5094924;28;20044;-72
2024/01/03 05:45:43;;;;;;;38.90;5.03;;;8.50;99.90;;;;;;5094735;28;20478;-72
2024/01/03 05:48:09;;;;;;;34.60;4.87;;;8.60;99.90;;;;;;5094593;28;20347;-71
2024/01/03 05:50:35;;;;;;;31.10;5.03;;;8.60;99.90;;;;;;5095124;28;20047;-71
2024/01/03 05:53:00;;;;;;;31.77;4.80;;;8.60;99.90;;;;;;5094638;28;20278;-72
2024/01/03 05:55:27;;;;;;;30.23;4.43;;;8.60;99.90;;;;;;5094715;28;20048;-72
2024/01/03 05:57:52;;;;;;;31.00;4.57;;;8.60;99.90;;;;;;5094355;28;20040;-72
2024/01/03 06:00:18;;;;;;;24.43;4.07;;;8.60;99.90;;;;;;5094401;28;20635;-72
2024/01/03 06:02:44;;;;;;;36.30;5.13;;;8.60;99.90;;;;;;5093776;28;20058;-72
2024/01/03 06:05:12;;;;;;;30.33;4.70;;;8.60;99.90;;;;;;5094355;28;20184;-72
2024/01/03 06:07:38;;;;;;;27.63;4.57;;;8.60;99.90;;;;;;5094449;28;20129;-72
2024/01/03 06:10:05;;;;;;;27.50;4.33;;;8.60;99.90;;;;;;5094252;28;20320;-72
2024/01/03 06:12:31;;;;;;;37.43;4.83;;;8.60;99.90;;;;;;5093331;28;20401;-72
2024/01/03 06:14:57;;;;;;;31.10;5.23;;;8.60;99.90;;;;;;5093944;28;20281;-72
2024/01/03 06:17:23;;;;;;;30.63;5.27;;;8.60;99.90;;;;;;5094413;28;20066;-72
2024/01/03 06:19:48;;;;;;;37.23;4.83;;;8.60;99.90;;;;;;5094334;28;20290;-72
2024/01/03 06:22:14;;;;;;;38.03;5.30;;;8.60;99.90;;;;;;5094056;28;20044;-72
2024/01/03 06:24:40;;;;;;;36.83;5.50;;;8.60;99.90;;;;;;5094254;28;20405;-72
2024/01/03 06:27:06;;;;;;;31.73;5.57;;;8.60;99.90;;;;;;5093763;28;20282;-72
2024/01/03 06:29:31;;;;;;;34.10;5.20;;;8.60;99.90;;;;;;5093939;28;20570;-72
2024/01/03 06:31:57;;;;;;;34.13;5.73;;;8.60;99.90;;;;;;5092530;28;20041;-72
2024/01/03 06:34:23;;;;;;;32.97;5.13;;;8.60;99.90;;;;;;5093974;28;20036;-72
2024/01/03 06:36:48;;;;;;;37.20;5.50;;;8.60;99.90;;;;;;5094251;28;20104;-71
2024/01/03 06:39:14;;;;;;;30.97;5.57;;;8.60;99.90;;;;;;5092251;28;20056;-71
2024/01/03 06:41:40;;;;;;;34.10;4.77;;;8.60;99.90;;;;;;5092477;28;20538;-71
2024/01/03 06:44:06;;;;;;;40.37;5.10;;;8.60;99.90;;;;;;5093454;28;20047;-72
2024/01/03 06:46:31;;;;;;;34.93;5.43;;;8.60;99.90;;;;;;5092928;28;20059;-72
2024/01/03 06:48:57;;;;;;;35.47;5.70;;;8.60;99.90;;;;;;5093594;28;20047;-72
2024/01/03 06:51:23;;;;;;;33.07;5.37;;;8.70;99.90;;;;;;5093745;28;20052;-72
2024/01/03 06:53:49;;;;;;;34.47;4.83;;;8.60;99.90;;;;;;5093831;28;20349;-72
2024/01/03 06:56:20;;;;;;;38.63;5.07;;;8.60;99.90;;;;;;5093302;28;20396;-72
2024/01/03 06:58:46;;;;;;;33.57;5.30;;;8.60;99.90;;;;;;5093458;28;20040;-72
2024/01/03 07:01:11;;;;;;;29.00;4.00;;;8.60;99.90;;;;;;5093437;28;20293;-72
2024/01/03 07:03:37;;;;;;;24.90;4.37;;;8.60;99.90;;;;;;5093571;28;20044;-72
2024/01/03 07:06:03;;;;;;;26.73;4.80;;;8.70;99.90;;;;;;5092149;28;20064;-71
2024/01/03 07:08:29;;;;;;;27.73;4.37;;;8.60;99.90;;;;;;5093549;28;20123;-72
2024/01/03 07:10:55;;;;;;;22.33;3.33;;;8.70;99.90;;;;;;5092536;28;20826;-72
2024/01/03 07:13:20;;;;;;;26.87;4.23;;;8.70;99.90;;;;;;5093243;28;20566;-72
2024/01/03 07:15:46;;;;;;;24.90;4.30;;;8.70;99.90;;;;;;5093391;28;20332;-72
2024/01/03 07:18:12;;;;;;;30.53;4.60;;;8.70;99.90;;;;;;5093333;28;20081;-72
2024/01/03 07:20:37;;;;;;;20.13;4.00;;;8.70;99.90;;;;;;5093327;28;20048;-71
2024/01/03 07:23:03;;;;;;;25.33;3.90;;;8.60;99.90;;;;;;5092068;28;20048;-72
2024/01/03 07:25:29;;;;;;;33.17;3.97;;;8.70;99.90;;;;;;5093236;28;20046;-72
2024/01/03 07:27:55;;;;;;;23.43;3.53;;;8.70;99.90;;;;;;5091803;28;20394;-72
2024/01/03 07:30:25;;;;;;;22.80;4.30;;;8.60;99.90;;;;;;5093035;28;20076;-72
2024/01/03 07:32:51;;;;;;;28.57;4.60;;;8.60;99.90;;;;;;5093312;28;20067;-72
2024/01/03 07:35:17;;;;;;;34.63;4.87;;;8.60;99.90;;;;;;5093116;28;20278;-72
2024/01/03 07:37:43;;;;;;;26.53;4.63;;;8.60;99.90;;;;;;5092987;28;20278;-72
2024/01/03 07:40:09;;;;;;;28.93;4.53;;;8.60;99.90;;;;;;5093209;28;20052;-72
2024/01/03 07:42:35;;;;;;;22.87;4.67;;;8.60;99.90;;;;;;5092937;28;20497;-72
2024/01/03 07:45:01;;;;;;;30.17;4.57;;;8.60;99.90;;;;;;5092865;28;20301;-73
2024/01/03 07:47:27;;;;;;;29.07;4.57;;;8.60;99.90;;;;;;5092953;28;20298;-72
2024/01/03 07:49:53;;;;;;;21.27;4.07;;;8.60;99.90;;;;;;5093632;28;20048;-72
2024/01/03 07:52:18;;;;;;;17.00;3.10;;;8.60;99.90;;;;;;5096808;28;20270;-72
2024/01/03 07:54:44;;;;;;;22.97;3.97;;;8.60;99.90;;;;;;5097102;28;20122;-72
2024/01/03 07:57:10;;;;;;;22.60;3.00;;;8.60;99.90;;;;;;5096480;28;20059;-72
2024/01/03 07:59:36;;;;;;;26.63;3.53;;;8.60;99.90;;;;;;5097157;28;20051;-72
2024/01/03 08:02:02;;;;;;;27.23;4.37;;;8.60;99.90;;;;;;5096843;28;20051;-73
2024/01/03 08:04:28;;;;;;;22.13;3.73;;;8.50;99.90;;;;;;5096893;28;20327;-72
2024/01/03 08:06:53;;;;;;;22.43;3.23;;;8.50;99.90;;;;;;5096800;28;20087;-72
2024/01/03 08:09:19;;;;;;;18.17;3.17;;;8.60;99.90;;;;;;5096512;28;20130;-72
2024/01/03 08:11:45;;;;;;;23.23;3.47;;;8.50;99.90;;;;;;5096616;28;20055;-72
2024/01/03 08:14:10;;;;;;;21.73;3.83;;;8.50;99.90;;;;;;5096575;28;20050;-72
2024/01/03 08:16:36;;;;;;;22.57;3.30;;;8.50;99.90;;;;;;5097001;28;20127;-73
2024/01/03 08:19:02;;;;;;;30.37;3.83;;;8.50;99.90;;;;;;5096603;28;20040;-73
2024/01/03 08:21:27;;;;;;;22.27;4.33;;;8.50;99.90;;;;;;5096233;28;20127;-73
2024/01/03 08:23:53;;;;;;;26.27;4.27;;;8.50;99.90;;;;;;5095481;28;20043;-73
2024/01/03 08:26:19;;;;;;;24.13;3.77;;;8.50;99.90;;;;;;5096246;28;20044;-73
2024/01/03 08:28:45;;;;;;;33.87;4.40;;;8.50;99.90;;;;;;5096364;28;20048;-74
2024/01/03 08:31:18;;;;;;;25.87;4.37;;;8.50;99.90;;;;;;5096390;28;20278;-73
2024/01/03 08:33:46;;;;;;;26.90;4.93;;;8.50;99.90;;;;;;5096334;28;20077;-73
2024/01/03 08:36:13;;;;;;;26.00;3.93;;;8.50;99.90;;;;;;5096050;28;20280;-73
2024/01/03 08:38:39;;;;;;;32.50;5.23;;;8.50;99.90;;;;;;5094839;28;20352;-73
2024/01/03 08:41:16;;;;;;;28.20;5.13;;;8.50;99.90;;;;;;5095101;28;20297;-72
2024/01/03 08:43:42;;;;;;;25.47;3.60;;;8.50;99.90;;;;;;5096403;28;20286;-72
2024/01/03 08:46:08;;;;;;;25.43;4.27;;;8.50;99.90;;;;;;5095910;28;20281;-72
2024/01/03 08:48:34;;;;;;;33.17;4.97;;;8.50;99.90;;;;;;5095943;28;20044;-73
2024/01/03 08:50:59;;;;;;;27.93;4.10;;;8.50;99.90;;;;;;5095928;28;20343;-73
2024/01/03 08:53:25;;;;;;;29.67;4.10;;;8.50;99.90;;;;;;5096118;28;20289;-72
2024/01/03 08:55:51;;;;;;;30.33;4.50;;;8.50;99.90;;;;;;5096023;28;20039;-72
2024/01/03 08:58:16;;;;;;;21.17;4.00;;;8.60;99.90;;;;;;5095767;28;20080;-73
2024/01/03 09:00:44;;;;;;;25.50;4.43;;;8.60;99.90;;;;;;5095877;28;20123;-74
2024/01/03 09:03:10;;;;;;;27.33;4.30;;;8.50;99.90;;;;;;5093895;28;20412;-73
2024/01/03 09:05:36;;;;;;;27.03;4.17;;;8.60;99.90;;;;;;5094469;28;20309;-73
2024/01/03 09:08:01;;;;;;;22.50;3.90;;;8.60;99.90;;;;;;5095407;28;20356;-73
2024/01/03 09:10:27;;;;;;;17.97;3.37;;;8.60;99.90;;;;;;5095504;28;20052;-74
2024/01/03 09:12:53;;;;;;;20.77;3.63;;;8.60;99.90;;;;;;5095598;28;20051;-73
2024/01/03 09:15:19;;;;;;;28.67;4.10;;;8.60;99.90;;;;;;5095497;28;20375;-74
2024/01/03 09:17:44;;;;;;;21.70;3.20;;;8.60;99.90;;;;;;5094452;28;20048;-74
2024/01/03 09:20:15;;;;;;;26.73;4.87;;;8.60;99.90;;;;;;5095315;28;20051;-74
2024/01/03 09:22:41;;;;;;;26.13;3.93;;;8.70;99.90;;;;;;5095385;28;20127;-74
2024/01/03 09:25:07;;;;;;;29.90;4.30;;;8.70;99.90;;;;;;5095440;28;20324;-73
2024/01/03 09:27:33;;;;;;;23.83;5.17;;;8.70;99.90;;;;;;5094851;28;20493;-73
2024/01/03 09:29:58;;;;;;;22.13;3.73;;;8.70;99.90;;;;;;5095245;28;20285;-73
2024/01/03 09:32:24;;;;;;;20.87;4.20;;;8.60;99.90;;;;;;5094952;28;20044;-74
2024/01/03 09:34:50;;;;;;;24.57;4.10;;;8.70;99.90;;;;;;5095075;28;20062;-73
2024/01/03 09:37:16;;;;;;;18.27;3.43;;;8.70;99.90;;;;;;5094767;28;20531;-74
2024/01/03 09:39:42;;;;;;;22.50;3.37;;;8.70;99.90;;;;;;5095052;28;20059;-73
2024/01/03 09:42:09;;;;;;;17.07;3.40;;;8.70;99.90;;;;;;5094998;28;20278;-74
2024/01/03 09:44:35;;;;;;;15.03;2.57;;;8.70;99.90;;;;;;5094820;28;20055;-74
2024/01/03 09:47:01;;;;;;;19.30;2.90;;;8.70;99.90;;;;;;5094881;28;20282;-73
2024/01/03 09:49:27;;;;;;;18.53;3.23;;;8.70;99.90;;;;;;5094444;28;20289;-74
2024/01/03 09:51:55;;;;;;;21.20;3.03;;;8.70;99.90;;;;;;5094173;28;20286;-74
2024/01/03 09:54:21;;;;;;;20.67;2.97;;;8.70;99.90;;;;;;5094278;28;20047;-77
2024/01/03 09:56:51;;;;;;;22.27;3.97;;;8.80;99.90;;;;;;5094641;28;20763;-78
2024/01/03 09:59:17;;;;;;;19.80;3.63;;;8.80;99.90;;;;;;5094546;28;20043;-78
2024/01/03 10:01:56;;;;;;;23.67;3.50;;;8.80;99.90;;;;;;5094461;28;20282;-79
2024/01/03 10:04:22;;;;;;;17.70;3.33;;;8.90;99.90;;;;;;5092899;28;20423;-77
2024/01/03 10:06:53;;;;;;;12.93;2.70;;;8.90;99.90;;;;;;5094320;28;20761;-79
2024/01/03 10:09:19;;;;;;;17.30;2.87;;;9.00;99.90;;;;;;5094081;28;20389;-78
2024/01/03 10:11:45;;;;;;;18.17;3.13;;;9.00;99.90;;;;;;5093180;28;20369;-79
2024/01/03 10:14:18;;;;;;;18.27;3.10;;;9.00;99.90;;;;;;5093298;28;20489;-79
2024/01/03 10:16:44;;;;;;;23.77;3.93;;;9.10;99.90;;;;;;5094214;28;20274;-81
2024/01/03 10:19:17;;;;;;;16.00;2.73;;;9.00;99.90;;;;;;5094362;28;20282;-80
2024/01/03 10:21:51;;;;;;;15.47;3.37;;;9.00;99.90;;;;;;5094336;28;20053;-80
2024/01/03 10:24:18;;;;;;;18.83;2.67;;;9.00;99.90;;;;;;5094148;28;20767;-80
2024/01/03 10:26:45;;;;;;;18.07;2.83;;;9.00;99.90;;;;;;5093076;28;20651;-80
2024/01/03 10:29:16;;;;;;;19.27;3.50;;;9.00;99.90;;;;;;5093794;28;20290;-74
2024/01/03 10:31:43;;;;;;;22.13;3.63;;;9.00;99.90;;;;;;5094318;28;20343;-78
2024/01/03 10:34:15;;;;;;;16.03;3.70;;;9.00;99.90;;;;;;5093947;28;20274;-80
2024/01/03 10:36:49;;;;;;;19.90;3.53;;;9.00;99.90;;;;;;5092790;28;20763;-76
2024/01/03 10:39:16;;;;;;;24.43;3.93;;;9.00;99.90;;;;;;5093986;28;20297;-74
2024/01/03 10:41:46;;;;;;;12.17;3.17;;;9.00;99.90;;;;;;5093144;28;20357;-76
2024/01/03 10:44:17;;;;;;;27.27;5.37;;;9.00;99.90;;;;;;5092777;28;20274;-74
2024/01/03 10:46:44;;;;;;;18.73;3.50;;;9.10;99.90;;;;;;5093082;28;20305;-74
2024/01/03 10:49:10;;;;;;;23.20;3.47;;;9.10;99.90;;;;;;5093729;28;20313;-74
2024/01/03 10:51:41;;;;;;;24.53;3.83;;;9.20;99.90;;;;;;5093498;28;20282;-74
2024/01/03 10:54:11;;;;;;;28.20;4.07;;;9.20;99.90;;;;;;5093718;28;20049;-74
2024/01/03 10:56:36;;;;;;;23.07;4.10;;;9.20;99.90;;;;;;5093374;28;20266;-74
2024/01/03 10:59:04;;;;;;;25.60;4.33;;;9.20;99.90;;;;;;5093880;28;20292;-74
2024/01/03 11:01:45;;;;;;;29.47;5.43;;;9.20;99.90;;;;;;5093461;28;20500;-74
2024/01/03 11:04:35;;;;;;;24.17;4.10;;;9.20;99.90;;;;;;5093745;28;20325;-74
2024/01/03 11:07:09;;;;;;;25.87;4.80;;;9.20;99.90;;;;;;5093846;28;20742;-74
2024/01/03 11:09:35;;;;;;;21.90;4.07;;;9.20;99.90;;;;;;5093224;28;20759;-74
2024/01/03 11:12:13;;;;;;;20.90;3.40;;;9.20;99.90;;;;;;5092575;28;20751;-74
2024/01/03 11:14:39;;;;;;;26.57;5.13;;;9.20;99.90;;;;;;5093353;28;20285;-74
2024/01/03 11:17:08;;;;;;;18.00;3.60;;;9.20;99.90;;;;;;5093312;28;20289;-74
2024/01/03 11:19:35;;;;;;;29.40;4.53;;;9.20;99.90;;;;;;5093188;28;20286;-74
2024/01/03 11:22:04;;;;;;;23.03;4.00;;;9.20;99.90;;;;;;5093419;28;20352;-74
2024/01/03 11:24:30;;;;;;;25.83;4.47;;;9.20;99.90;;;;;;5092914;28;20285;-74
2024/01/03 11:26:56;;;;;;;24.37;4.30;;;9.30;99.90;;;;;;5092640;28;20615;-74
2024/01/03 11:29:45;;;;;;;31.27;4.57;;;9.30;99.90;;;;;;5093253;28;20048;-74
2024/01/03 11:32:35;;;;;;;24.83;3.83;;;9.20;99.90;;;;;;5092433;28;20673;-74
2024/01/03 11:35:03;;;;;;;26.40;4.60;;;9.20;99.90;;;;;;5083091;28;20333;-74
2024/01/03 11:37:29;;;;;;;29.70;5.17;;;9.20;99.90;;;;;;5092890;28;20281;-74
2024/01/03 11:39:56;;;;;;;25.93;4.53;;;9.20;99.90;;;;;;5093351;28;20290;-74
2024/01/03 11:42:30;;;;;;;27.57;5.57;;;9.20;99.90;;;;;;5092703;28;20751;-74
2024/01/03 11:45:00;;;;;;;23.87;4.17;;;9.20;99.90;;;;;;5093144;28;20759;-74
2024/01/03 11:47:26;;;;;;;22.93;4.40;;;9.20;99.90;;;;;;5092801;28;20290;-74
2024/01/03 11:49:59;;;;;;;28.03;4.23;;;9.20;99.90;;;;;;5092909;28;20857;-74
2024/01/03 11:52:25;;;;;;;34.13;5.03;;;9.20;99.90;;;;;;5092095;28;20055;-74
2024/01/03 11:54:52;;;;;;;18.80;3.87;;;9.20;99.90;;;;;;5075103;28;20286;-74
2024/01/03 11:57:21;;;;;;;22.27;3.73;;;9.20;99.90;;;;;;5093177;28;20048;-74
2024/01/03 11:59:56;;;;;;;27.27;4.03;;;9.20;99.90;;;;;;5092827;28;20802;-74
2024/01/03 12:02:22;;;;;;;25.27;4.70;;;9.20;99.90;;;;;;5092978;28;20767;-74
2024/01/03 12:04:47;;;;;;;25.30;3.93;;;9.20;99.90;;;;;;5092662;28;20089;-74
2024/01/03 12:07:14;;;;;;;18.37;4.20;;;9.20;99.90;;;;;;5092612;28;20044;-74
2024/01/03 12:09:40;;;;;;;27.87;4.23;;;9.20;99.90;;;;;;5092798;28;20285;-74
2024/01/03 12:12:06;;;;;;;22.20;4.90;;;9.30;99.90;;;;;;5093111;28;20046;-74
2024/01/03 12:14:32;;;;;;;23.87;4.23;;;9.20;99.90;;;;;;5091664;28;20048;-74
2024/01/03 12:16:58;;;;;;;28.77;4.47;;;9.30;99.90;;;;;;5092515;28;20285;-75
2024/01/03 12:19:27;;;;;;;26.67;3.97;;;9.30;99.90;;;;;;5092604;28;20532;-78
2024/01/03 12:22:01;;;;;;;21.53;4.03;;;9.30;99.90;;;;;;5092284;28;20054;-75
2024/01/03 12:24:41;;;;;;;24.57;4.47;;;9.30;99.90;;;;;;5092946;28;20374;-75
2024/01/03 12:27:08;;;;;;;21.67;4.53;;;9.30;99.90;;;;;;5091592;28;20286;-74
2024/01/03 12:29:34;;;;;;;26.23;4.17;;;9.30;99.90;;;;;;5092571;28;20427;-74
2024/01/03 12:32:15;;;;;;;28.03;5.40;;;9.40;99.90;;;;;;5092554;28;20282;-74
2024/01/03 12:34:41;;;;;;;27.03;3.93;;;9.40;99.90;;;;;;5092515;28;20766;-74
2024/01/03 12:37:07;;;;;;;23.17;4.30;;;9.40;99.90;;;;;;5093522;28;20281;-74
2024/01/03 12:39:34;;;;;;;27.83;4.17;;;9.40;99.90;;;;;;5095863;28;20623;-75
2024/01/03 12:42:04;;;;;;;23.83;3.90;;;9.40;99.90;;;;;;5096193;28;20415;-74
2024/01/03 12:44:33;;;;;;;25.40;4.53;;;9.40;99.90;;;;;;5096200;28;20289;-74
2024/01/03 12:46:58;;;;;;;20.90;3.83;;;9.40;99.90;;;;;;5095889;28;20285;-75